Time;durP1;ratioP1;P1;durP2;ratioP2;P2;SDS_P1;SDS_P2;PMS_P1;PMS_P2;Temp;Humidity;BMP_temperature;BMP_pressure;BME280_temperature;BME280_humidity;BME280_pressure;Samples;Min_cycle;Max_cycle;Signal;HPM_P1;HPM_P2
2022/03/22 00:01:10;;;;;;;38.10;21.50;;;23.10;46.90;;;;;;219274;1274;24254;-55
2022/03/22 00:06:15;;;;;;;40.10;23.50;;;23.00;46.60;;;;;;219357;1273;22702;-54
2022/03/22 00:11:21;;;;;;;37.30;22.20;;;22.90;46.70;;;;;;219411;1273;22778;-56
2022/03/22 00:16:25;;;;;;;39.10;23.80;;;22.90;46.30;;;;;;219508;1272;25360;-54
2022/03/22 00:21:50;;;;;;;37.10;22.70;;;22.80;46.40;;;;;;219463;1273;22538;-52
2022/03/22 00:26:54;;;;;;;37.20;22.70;;;22.80;46.00;;;;;;219494;1273;25490;-54
2022/03/22 00:31:58;;;;;;;36.10;22.60;;;22.70;46.20;;;;;;219442;1273;25319;-56
2022/03/22 00:37:01;;;;;;;33.30;21.40;;;22.70;45.80;;;;;;219303;1273;22580;-56
2022/03/22 00:42:05;;;;;;;35.60;21.50;;;22.60;46.10;;;;;;219451;1273;25319;-54
2022/03/22 00:47:09;;;;;;;36.20;21.50;;;22.60;46.00;;;;;;219552;1273;25628;-53
2022/03/22 00:52:13;;;;;;;35.90;22.30;;;22.50;45.20;;;;;;219507;1273;22556;-55
2022/03/22 00:57:18;;;;;;;39.20;22.30;;;22.50;45.50;;;;;;219481;1273;25475;-51
2022/03/22 01:02:22;;;;;;;35.40;21.90;;;22.40;45.50;;;;;;219455;1273;23129;-53
2022/03/22 01:07:27;;;;;;;34.30;21.20;;;22.40;45.50;;;;;;219448;1273;22571;-55
2022/03/22 01:12:34;;;;;;;33.60;20.90;;;22.40;45.40;;;;;;219320;1273;22740;-55
2022/03/22 01:17:37;;;;;;;32.50;19.40;;;22.50;45.10;;;;;;219405;1273;25698;-53
2022/03/22 01:22:44;;;;;;;32.30;20.50;;;22.90;44.70;;;;;;219514;1273;24450;-54
2022/03/22 01:27:48;;;;;;;32.80;19.80;;;23.20;44.40;;;;;;219495;1272;25491;-56
2022/03/22 01:32:54;;;;;;;29.40;18.30;;;23.40;44.40;;;;;;219516;1271;22547;-55
2022/03/22 01:37:59;;;;;;;30.20;19.80;;;23.60;43.20;;;;;;219372;1274;25326;-55
2022/03/22 01:43:04;;;;;;;29.70;19.30;;;23.70;42.80;;;;;;219361;1273;23866;-55
2022/03/22 01:48:07;;;;;;;31.00;19.70;;;23.80;43.10;;;;;;219255;1273;24270;-54
2022/03/22 01:53:11;;;;;;;34.20;18.80;;;23.90;42.30;;;;;;219314;1273;26652;-54
2022/03/22 01:58:15;;;;;;;32.30;18.40;;;23.90;41.60;;;;;;219208;1273;25577;-52
2022/03/22 02:08:41;;;;;;;31.40;18.50;;;24.10;41.60;;;;;;219577;1272;25360;-53
2022/03/22 02:13:44;;;;;;;29.70;17.80;;;24.10;41.30;;;;;;219499;1273;22557;-54
2022/03/22 02:18:51;;;;;;;29.10;18.80;;;24.10;41.30;;;;;;219453;1273;22597;-54
2022/03/22 02:23:58;;;;;;;27.70;18.30;;;24.20;41.10;;;;;;219428;1273;22727;-53
2022/03/22 02:29:01;;;;;;;30.30;18.10;;;24.20;41.60;;;;;;219356;1273;24975;-54
2022/03/22 02:34:05;;;;;;;27.90;18.30;;;24.30;40.90;;;;;;219291;1273;22613;-52
2022/03/22 02:39:09;;;;;;;28.20;18.20;;;24.30;41.30;;;;;;219603;1273;22550;-57
2022/03/22 02:44:13;;;;;;;26.30;17.80;;;24.40;40.90;;;;;;219382;1273;22551;-53
2022/03/22 02:49:16;;;;;;;28.20;17.60;;;24.30;40.90;;;;;;219396;1273;22644;-54
2022/03/22 02:54:20;;;;;;;27.70;18.10;;;24.10;41.50;;;;;;219428;1273;24909;-56
2022/03/22 02:59:23;;;;;;;30.40;18.80;;;24.00;41.50;;;;;;219311;1273;25522;-54
2022/03/22 03:04:27;;;;;;;31.90;18.70;;;23.90;41.70;;;;;;219373;1272;25395;-57
2022/03/22 03:09:31;;;;;;;28.60;18.20;;;23.80;41.90;;;;;;219378;1273;25484;-52
2022/03/22 03:14:40;;;;;;;28.00;17.70;;;23.60;42.00;;;;;;219281;1273;22593;-56
2022/03/22 03:19:43;;;;;;;28.00;17.40;;;23.50;41.90;;;;;;219363;1273;22811;-53
2022/03/22 03:24:47;;;;;;;27.80;17.30;;;23.40;42.50;;;;;;219394;1273;22647;-55
2022/03/22 03:29:51;;;;;;;27.70;17.30;;;23.30;42.20;;;;;;219512;1273;22594;-56
2022/03/22 03:34:55;;;;;;;26.20;17.80;;;23.20;42.30;;;;;;219259;1273;22562;-54
2022/03/22 03:39:58;;;;;;;27.20;18.60;;;23.10;42.30;;;;;;219207;1273;24291;-53
2022/03/22 03:50:25;;;;;;;24.90;16.70;;;23.00;42.50;;;;;;219474;1273;25467;-54
2022/03/22 03:55:29;;;;;;;27.90;17.40;;;22.90;42.60;;;;;;219466;1276;22566;-55
2022/03/22 04:00:33;;;;;;;23.80;16.30;;;22.80;42.80;;;;;;219401;1273;24396;-52
2022/03/22 04:05:36;;;;;;;24.80;16.80;;;22.80;43.20;;;;;;219452;1273;25332;-54
2022/03/22 04:10:45;;;;;;;24.20;15.90;;;22.70;43.10;;;;;;219613;1273;22685;-54
2022/03/22 04:15:48;;;;;;;25.00;16.60;;;22.70;43.00;;;;;;219360;1273;22618;-53
2022/03/22 04:20:52;;;;;;;22.90;16.20;;;22.60;43.00;;;;;;219299;1273;22643;-54
2022/03/22 04:25:57;;;;;;;23.20;15.00;;;22.60;43.10;;;;;;219416;1273;25236;-54
2022/03/22 04:36:23;;;;;;;24.10;15.70;;;23.00;42.70;;;;;;219282;1273;22646;-59
2022/03/22 04:41:27;;;;;;;22.90;14.90;;;23.30;42.00;;;;;;219326;1273;25361;-52
2022/03/22 04:46:31;;;;;;;22.40;15.00;;;23.60;41.70;;;;;;219216;1273;260155;-52
2022/03/22 04:56:57;;;;;;;25.10;14.90;;;23.80;41.00;;;;;;219277;1273;24267;-54
2022/03/22 05:02:01;;;;;;;23.10;15.60;;;23.90;41.10;;;;;;219389;1273;24962;-52
2022/03/22 05:07:05;;;;;;;26.40;15.70;;;24.00;40.70;;;;;;219382;1273;25250;-51
2022/03/22 05:12:13;;;;;;;25.20;15.40;;;24.00;40.50;;;;;;219493;1273;22586;-50
2022/03/22 05:17:23;;;;;;;23.80;15.00;;;24.10;40.70;;;;;;219405;1273;22605;-55
2022/03/22 05:22:26;;;;;;;22.10;14.30;;;24.00;40.20;;;;;;219438;1273;26614;-54
2022/03/22 05:27:30;;;;;;;23.10;14.70;;;24.10;40.00;;;;;;219261;1273;22623;-55
2022/03/22 05:32:35;;;;;;;20.80;13.90;;;24.20;40.00;;;;;;219434;1273;25495;-55
2022/03/22 05:37:39;;;;;;;22.00;14.40;;;24.20;39.80;;;;;;219362;1273;25331;-53
2022/03/22 05:42:43;;;;;;;22.30;14.30;;;24.20;39.80;;;;;;219369;1273;24448;-51
2022/03/22 05:47:46;;;;;;;24.70;14.80;;;24.30;39.90;;;;;;219381;1273;22590;-55
2022/03/22 05:52:50;;;;;;;21.40;14.10;;;24.30;39.90;;;;;;219416;1273;22541;-54
2022/03/22 05:57:54;;;;;;;21.50;13.80;;;24.30;39.90;;;;;;219411;1273;25449;-55
2022/03/22 06:02:58;;;;;;;19.90;13.40;;;24.30;40.20;;;;;;219422;1273;25529;-53
2022/03/22 06:08:02;;;;;;;23.80;14.40;;;24.30;40.30;;;;;;219603;1273;23046;-55
2022/03/22 06:13:05;;;;;;;21.80;14.00;;;24.20;40.00;;;;;;219371;1273;25507;-56
2022/03/22 06:18:16;;;;;;;22.80;14.20;;;24.10;40.10;;;;;;219343;1273;26887;-53
2022/03/22 06:23:20;;;;;;;21.60;14.30;;;24.00;40.90;;;;;;219290;1273;24585;-53
2022/03/22 06:28:24;;;;;;;22.40;13.80;;;23.90;40.80;;;;;;219275;1273;23105;-56
2022/03/22 06:33:27;;;;;;;22.60;13.90;;;23.80;40.60;;;;;;219511;1273;24226;-52
2022/03/22 06:38:34;;;;;;;24.20;13.90;;;23.60;41.10;;;;;;219334;1273;24663;-57
2022/03/22 06:43:38;;;;;;;23.70;13.70;;;23.50;41.30;;;;;;219429;1273;24435;-54
2022/03/22 06:48:42;;;;;;;21.60;13.90;;;23.40;41.50;;;;;;219261;1273;24515;-57
2022/03/22 06:53:48;;;;;;;23.70;14.20;;;23.30;42.50;;;;;;219563;1273;24269;-54
2022/03/22 06:58:53;;;;;;;19.90;12.70;;;23.30;42.40;;;;;;219378;1273;22556;-55
2022/03/22 07:03:57;;;;;;;23.00;13.70;;;23.30;42.40;;;;;;219281;1277;22703;-53
2022/03/22 07:09:00;;;;;;;20.30;13.70;;;23.30;42.60;;;;;;219497;1273;22620;-54
2022/03/22 07:14:04;;;;;;;22.40;13.10;;;23.20;42.90;;;;;;219262;1273;22639;-51
2022/03/22 07:19:10;;;;;;;21.10;13.30;;;23.10;43.40;;;;;;219238;1273;22545;-56
2022/03/22 07:24:20;;;;;;;22.30;12.70;;;23.00;43.50;;;;;;219333;1273;24310;-56
2022/03/22 07:29:24;;;;;;;21.80;13.00;;;23.00;43.50;;;;;;219366;1273;22535;-52
2022/03/22 07:34:31;;;;;;;28.10;13.30;;;22.90;43.50;;;;;;219478;1273;24315;-56
2022/03/22 07:39:38;;;;;;;26.10;13.40;;;22.80;43.80;;;;;;219500;1273;22589;-55
2022/03/22 07:44:45;;;;;;;23.90;12.90;;;22.80;43.90;;;;;;219351;1273;22547;-52
2022/03/22 07:55:14;;;;;;;22.50;13.60;;;22.80;44.00;;;;;;219467;1273;25221;-52
2022/03/22 08:00:18;;;;;;;21.80;12.20;;;22.70;43.80;;;;;;220554;1272;25706;-54
2022/03/22 08:05:24;;;;;;;21.80;12.90;;;22.70;43.70;;;;;;219515;1274;25317;-54
2022/03/22 08:10:28;;;;;;;22.40;13.60;;;22.70;43.90;;;;;;219550;1276;22650;-54
2022/03/22 08:15:35;;;;;;;22.30;13.20;;;22.60;43.60;;;;;;219431;1273;23328;-56
2022/03/22 08:20:39;;;;;;;25.90;13.60;;;22.60;43.50;;;;;;219409;1274;22627;-53
2022/03/22 08:25:48;;;;;;;26.70;14.70;;;22.60;43.40;;;;;;219410;1273;22630;-57
2022/03/22 08:31:13;;;;;;;23.80;13.80;;;22.50;42.90;;;;;;219268;1276;25524;-51
2022/03/22 08:36:23;;;;;;;26.50;13.40;;;22.60;43.30;;;;;;219038;1276;24420;-56
2022/03/22 08:41:30;;;;;;;24.30;13.40;;;22.60;43.20;;;;;;219022;1276;22627;-56
2022/03/22 08:46:34;;;;;;;27.10;15.00;;;22.60;43.00;;;;;;219020;1276;22628;-54
2022/03/22 08:51:43;;;;;;;24.90;13.90;;;22.60;43.00;;;;;;219098;1276;24242;-55
2022/03/22 08:56:47;;;;;;;24.00;13.70;;;22.70;42.70;;;;;;219068;1276;25438;-55
2022/03/22 09:01:51;;;;;;;23.60;14.30;;;22.60;43.00;;;;;;219009;1275;23534;-54
2022/03/22 09:06:55;;;;;;;26.00;14.40;;;22.60;43.10;;;;;;219092;1276;22606;-55
2022/03/22 09:11:58;;;;;;;24.70;14.50;;;22.50;42.80;;;;;;219051;1276;22542;-52
2022/03/22 09:17:07;;;;;;;25.10;14.40;;;22.60;42.70;;;;;;219093;1276;24963;-52
2022/03/22 09:22:18;;;;;;;27.50;14.50;;;22.60;42.60;;;;;;218956;1276;22721;-55
2022/03/22 09:27:30;;;;;;;26.00;14.70;;;22.60;42.80;;;;;;219169;1273;22607;-56
2022/03/22 09:32:38;;;;;;;26.80;15.60;;;22.60;42.20;;;;;;219503;1273;22542;-55
2022/03/22 09:37:43;;;;;;;25.30;14.20;;;22.70;42.30;;;;;;219288;1273;22548;-54
2022/03/22 09:42:48;;;;;;;21.90;14.20;;;22.70;42.40;;;;;;219299;1273;24307;-54
2022/03/22 09:47:52;;;;;;;24.60;14.30;;;22.60;42.50;;;;;;219372;1273;22791;-55
2022/03/22 09:52:56;;;;;;;24.00;14.20;;;22.60;42.70;;;;;;219368;1274;22557;-56
2022/03/22 09:57:59;;;;;;;23.60;14.20;;;22.70;42.10;;;;;;219439;1273;25364;-52
2022/03/22 10:03:03;;;;;;;22.40;14.30;;;22.80;41.90;;;;;;219414;1273;24307;-56
2022/03/22 10:08:13;;;;;;;22.70;14.00;;;22.80;42.00;;;;;;219409;1273;24307;-56
2022/03/22 10:13:16;;;;;;;26.00;14.60;;;22.80;42.00;;;;;;219241;1273;22605;-55
2022/03/22 10:18:24;;;;;;;25.50;13.70;;;22.80;41.80;;;;;;219405;1274;26621;-55
2022/03/22 10:23:31;;;;;;;24.30;14.60;;;22.90;41.50;;;;;;219445;1274;22626;-55
2022/03/22 10:28:50;;;;;;;24.50;15.10;;;23.00;41.30;;;;;;219383;1277;22591;-56
2022/03/22 10:33:58;;;;;;;24.60;14.30;;;23.00;41.20;;;;;;219411;1273;22635;-55
2022/03/22 10:39:07;;;;;;;25.20;13.80;;;23.00;41.30;;;;;;219317;1275;26061;-53
2022/03/22 10:44:23;;;;;;;22.70;13.30;;;23.00;41.20;;;;;;219517;1273;22561;-53
2022/03/22 10:49:27;;;;;;;22.00;13.90;;;23.10;41.10;;;;;;219490;1274;22694;-53
2022/03/22 10:54:51;;;;;;;23.60;13.50;;;23.10;41.00;;;;;;219521;1274;25598;-54
2022/03/22 11:00:06;;;;;;;21.20;13.60;;;23.20;40.70;;;;;;219369;1275;25629;-55
2022/03/22 11:05:14;;;;;;;21.40;14.10;;;23.20;40.60;;;;;;219335;1274;25319;-55
2022/03/22 11:10:25;;;;;;;20.90;14.30;;;23.30;40.70;;;;;;219351;1274;24470;-56
2022/03/22 11:15:47;;;;;;;20.30;13.00;;;23.40;40.20;;;;;;219389;1274;24285;-55
2022/03/22 11:21:00;;;;;;;20.50;12.90;;;23.40;40.40;;;;;;219477;1273;22738;-55
2022/03/22 11:26:07;;;;;;;19.70;13.70;;;23.50;40.40;;;;;;219516;1274;24251;-57
2022/03/22 11:31:14;;;;;;;21.50;12.90;;;23.50;40.00;;;;;;219537;1274;24246;-55
2022/03/22 11:36:25;;;;;;;22.50;13.70;;;23.50;39.90;;;;;;220091;1276;26562;-55
2022/03/22 11:47:41;;;;;;;20.80;13.40;;;23.50;39.80;;;;;;219376;1277;22561;-57
2022/03/22 11:53:00;;;;;;;21.20;12.40;;;23.50;39.70;;;;;;219542;1274;25261;-54
2022/03/22 11:58:08;;;;;;;21.60;13.00;;;23.60;39.60;;;;;;219807;1274;26522;-55
2022/03/22 12:03:22;;;;;;;17.60;12.10;;;23.60;38.90;;;;;;219654;1275;22574;-54
2022/03/22 12:08:31;;;;;;;23.30;13.30;;;23.60;39.30;;;;;;219694;1275;22539;-54
2022/03/22 12:13:50;;;;;;;21.40;12.60;;;23.60;38.70;;;;;;219506;1277;24956;-56
2022/03/22 12:18:59;;;;;;;25.70;13.70;;;23.60;39.00;;;;;;219745;1274;22627;-56
2022/03/22 12:24:05;;;;;;;27.90;12.70;;;23.70;40.40;;;;;;219482;1274;22864;-56
2022/03/22 12:29:42;;;;;;;28.90;12.10;;;23.80;41.90;;;;;;219782;1274;25344;-55
2022/03/22 12:34:47;;;;;;;22.60;12.50;;;23.80;40.50;;;;;;220085;1274;22600;-56
2022/03/22 12:39:50;;;;;;;19.50;12.50;;;23.90;42.00;;;;;;220242;1275;25369;-54
2022/03/22 12:45:02;;;;;;;17.80;11.40;;;23.90;42.60;;;;;;220121;1274;22747;-57
2022/03/22 12:50:11;;;;;;;22.00;12.50;;;23.90;41.60;;;;;;220035;1275;24103;-56
2022/03/22 12:55:20;;;;;;;19.20;11.80;;;24.00;41.50;;;;;;220285;1276;22541;-57
2022/03/22 13:00:32;;;;;;;19.70;11.60;;;23.90;40.90;;;;;;220280;1274;24233;-54
2022/03/22 13:05:41;;;;;;;19.10;11.10;;;23.90;40.70;;;;;;219919;1274;25475;-56
2022/03/22 13:16:24;;;;;;;16.40;10.40;;;23.90;40.60;;;;;;220329;1275;22535;-55
2022/03/22 13:21:30;;;;;;;18.90;11.80;;;23.90;40.40;;;;;;220470;1274;22716;-57
2022/03/22 13:26:35;;;;;;;17.80;11.50;;;24.00;40.30;;;;;;220514;1274;22552;-56
2022/03/22 13:31:53;;;;;;;16.10;10.80;;;23.90;40.10;;;;;;220341;1274;24509;-55
2022/03/22 13:37:14;;;;;;;18.20;10.20;;;24.00;40.00;;;;;;220678;1275;25380;-56
2022/03/22 13:42:23;;;;;;;21.20;11.70;;;23.90;40.30;;;;;;224260;1276;22928;-56
2022/03/22 13:47:35;;;;;;;17.20;10.80;;;24.00;39.80;;;;;;226505;1276;22574;-56
2022/03/22 13:52:40;;;;;;;27.00;13.70;;;23.90;39.60;;;;;;226079;1273;22618;-57
2022/03/22 13:57:52;;;;;;;21.20;12.40;;;24.00;39.60;;;;;;222716;1274;22886;-56
2022/03/22 14:03:16;;;;;;;18.10;11.70;;;23.90;39.10;;;;;;220154;1273;22670;-55
2022/03/22 14:08:21;;;;;;;18.70;12.40;;;23.90;38.30;;;;;;220149;1273;25276;-54
2022/03/22 14:13:33;;;;;;;28.00;11.90;;;23.90;38.40;;;;;;219965;1274;25484;-56
2022/03/22 14:18:38;;;;;;;22.30;12.00;;;23.90;43.20;;;;;;219739;1273;25555;-56
2022/03/22 14:23:42;;;;;;;21.70;12.50;;;23.90;42.40;;;;;;219746;1274;26351;-55
2022/03/22 14:28:46;;;;;;;20.60;13.00;;;24.00;42.60;;;;;;219710;1275;24797;-55
2022/03/22 14:33:49;;;;;;;18.30;11.80;;;23.90;42.50;;;;;;220067;1274;24816;-53
2022/03/22 14:38:53;;;;;;;23.20;11.30;;;23.90;42.80;;;;;;220187;1273;23070;-56
2022/03/22 14:43:57;;;;;;;28.40;12.10;;;23.90;42.40;;;;;;220225;1273;25520;-56
2022/03/22 14:49:01;;;;;;;20.80;12.10;;;23.80;41.50;;;;;;220192;1273;22540;-53
2022/03/22 14:54:09;;;;;;;19.50;11.30;;;23.80;42.30;;;;;;220024;1274;22524;-56
2022/03/22 14:59:16;;;;;;;21.80;12.10;;;23.80;41.70;;;;;;219839;1273;25423;-56
2022/03/22 15:04:20;;;;;;;18.60;11.70;;;23.70;41.50;;;;;;219719;1273;26602;-56
2022/03/22 15:09:24;;;;;;;24.60;12.30;;;23.70;42.10;;;;;;219699;1273;22538;-56
2022/03/22 15:14:30;;;;;;;16.90;11.00;;;23.60;41.60;;;;;;219333;1273;25843;-55
2022/03/22 15:19:41;;;;;;;15.90;10.60;;;23.60;41.30;;;;;;219473;1273;25320;-55
2022/03/22 15:24:46;;;;;;;18.70;11.80;;;23.60;41.80;;;;;;219537;1274;23058;-56
2022/03/22 15:29:54;;;;;;;17.50;11.20;;;23.50;41.30;;;;;;219721;1273;24350;-55
2022/03/22 15:35:09;;;;;;;15.80;10.70;;;23.50;41.10;;;;;;219593;1273;22685;-54
2022/03/22 15:40:17;;;;;;;25.10;12.20;;;23.40;40.90;;;;;;219359;1275;27036;-53
2022/03/22 15:45:21;;;;;;;19.40;10.20;;;23.40;40.90;;;;;;219493;1273;22655;-54
2022/03/22 15:50:29;;;;;;;17.50;11.00;;;23.30;41.20;;;;;;219603;1274;23810;-55
2022/03/22 15:55:36;;;;;;;15.80;10.50;;;23.30;40.70;;;;;;219412;1273;25486;-57
2022/03/22 16:00:45;;;;;;;17.20;10.10;;;23.30;40.70;;;;;;219314;1273;24225;-56
2022/03/22 16:05:49;;;;;;;14.30;9.70;;;23.30;40.70;;;;;;219549;1273;24412;-55
2022/03/22 16:10:59;;;;;;;15.70;9.80;;;23.30;40.10;;;;;;219447;1273;25340;-56
2022/03/22 16:16:09;;;;;;;24.90;10.90;;;23.20;39.80;;;;;;219389;1273;22550;-54
2022/03/22 16:21:22;;;;;;;24.40;11.60;;;23.20;39.80;;;;;;218595;1273;22603;-55
2022/03/22 16:26:29;;;;;;;24.00;10.40;;;23.20;39.90;;;;;;227402;1272;22600;-56
2022/03/22 16:31:45;;;;;;;20.40;10.10;;;23.20;40.30;;;;;;227265;1274;22394;-57
2022/03/22 16:37:04;;;;;;;21.70;10.10;;;23.20;40.10;;;;;;226825;1272;22428;-53
2022/03/22 16:42:24;;;;;;;20.30;9.70;;;23.30;40.50;;;;;;227060;1273;22566;-57
2022/03/22 16:47:37;;;;;;;427.90;130.00;;;23.30;42.10;;;;;;226810;1273;176574;-57
2022/03/22 16:53:09;;;;;;;257.60;80.70;;;23.30;42.10;;;;;;226708;1273;23214;-55
2022/03/22 16:58:20;;;;;;;222.00;74.40;;;23.30;42.60;;;;;;226999;1272;22487;-56
2022/03/22 17:03:41;;;;;;;205.60;73.40;;;23.30;42.50;;;;;;227111;1272;22415;-52
2022/03/22 17:08:56;;;;;;;196.80;69.20;;;23.30;42.30;;;;;;227000;1272;22317;-57
2022/03/22 17:14:30;;;;;;;216.40;73.40;;;23.30;42.90;;;;;;226955;1272;22378;-55
2022/03/22 17:19:54;;;;;;;195.10;67.20;;;23.20;42.80;;;;;;227012;1272;22407;-53
2022/03/22 17:25:20;;;;;;;181.90;60.60;;;23.20;42.50;;;;;;226902;1271;22618;-55
2022/03/22 17:30:54;;;;;;;173.40;60.50;;;23.20;42.20;;;;;;218519;1273;22560;-57
2022/03/22 17:36:47;;;;;;;164.40;56.30;;;23.20;41.90;;;;;;227336;1272;22404;-58
2022/03/22 17:42:26;;;;;;;149.30;56.00;;;23.20;41.40;;;;;;223391;1272;22553;-56
2022/03/22 17:48:03;;;;;;;130.80;53.90;;;23.20;41.20;;;;;;218996;1273;24729;-49
2022/03/22 17:53:19;;;;;;;138.10;54.30;;;23.20;42.00;;;;;;219249;1273;24337;-51
2022/03/22 17:58:35;;;;;;;105.60;44.00;;;23.10;41.00;;;;;;218885;1273;25540;-51
2022/03/22 18:03:48;;;;;;;98.00;40.10;;;23.10;40.90;;;;;;218865;1273;26130;-48
2022/03/22 18:08:53;;;;;;;88.40;35.80;;;23.00;41.30;;;;;;219157;1273;25325;-48
2022/03/22 18:13:57;;;;;;;89.70;35.70;;;23.00;41.50;;;;;;219461;1273;25403;-49
2022/03/22 18:19:23;;;;;;;84.60;32.50;;;23.00;42.30;;;;;;219333;1273;24454;-48
2022/03/22 18:24:27;;;;;;;79.70;30.60;;;23.00;42.20;;;;;;219464;1273;23275;-51
2022/03/22 18:29:44;;;;;;;66.90;28.80;;;23.00;43.00;;;;;;219048;1273;22620;-49
2022/03/22 18:34:51;;;;;;;63.20;26.00;;;23.00;42.50;;;;;;219511;1273;22549;-49
2022/03/22 18:40:00;;;;;;;54.40;23.50;;;23.00;42.20;;;;;;219711;1273;24279;-49
2022/03/22 18:45:07;;;;;;;46.40;23.10;;;23.00;42.30;;;;;;219479;1273;22511;-52
2022/03/22 18:50:28;;;;;;;48.00;21.20;;;23.00;42.70;;;;;;219699;1273;25406;-55
2022/03/22 18:55:34;;;;;;;49.40;20.10;;;23.00;42.80;;;;;;219696;1273;24231;-53
2022/03/22 19:07:08;;;;;;;48.60;20.20;;;23.00;42.20;;;;;;205277;1290;949289;-45
2022/03/22 19:12:38;;;;;;;49.40;19.40;;;22.90;42.50;;;;;;223386;1286;22370;31
2022/03/22 19:18:20;;;;;;;37.70;19.40;;;22.90;42.60;;;;;;219313;1296;22589;-50
2022/03/22 19:23:43;;;;;;;38.40;16.90;;;22.90;42.60;;;;;;214952;1296;24302;-56
2022/03/22 19:28:50;;;;;;;32.80;15.70;;;22.90;42.90;;;;;;215600;1296;24347;-57
2022/03/22 19:34:03;;;;;;;29.40;14.40;;;22.90;43.10;;;;;;215539;1296;22591;-56
2022/03/22 19:39:21;;;;;;;;;;;22.80;43.20;;;;;;215514;1298;22569;-54
2022/03/22 19:44:59;;;;;;;39.40;14.90;;;22.80;43.30;;;;;;215523;1296;22570;-50
2022/03/22 19:50:41;;;;;;;35.80;14.80;;;22.80;43.50;;;;;;215471;1296;22579;-50
2022/03/22 19:56:37;;;;;;;31.10;14.80;;;22.70;43.80;;;;;;215383;1296;24362;-56
2022/03/22 20:02:08;;;;;;;26.70;13.50;;;22.80;44.70;;;;;;215309;1296;24046;-51
2022/03/22 20:07:46;;;;;;;31.40;13.30;;;22.70;45.20;;;;;;215458;1296;25365;-51
2022/03/22 20:13:29;;;;;;;30.10;13.50;;;22.80;45.60;;;;;;215662;1296;22654;-53
2022/03/22 20:18:58;;;;;;;28.50;13.00;;;22.90;45.50;;;;;;215690;1297;24367;-55
2022/03/22 20:24:13;;;;;;;26.70;11.90;;;22.80;45.80;;;;;;215589;1296;22616;-52
2022/03/22 20:29:32;;;;;;;32.10;12.10;;;22.80;46.40;;;;;;215610;1296;26664;-59
2022/03/22 20:35:25;;;;;;;23.90;10.70;;;22.80;47.10;;;;;;214893;1297;24582;-55
2022/03/22 20:41:10;;;;;;;23.10;10.70;;;22.70;46.30;;;;;;215547;1296;24408;-61
2022/03/22 20:46:38;;;;;;;20.50;9.60;;;22.70;46.50;;;;;;214932;1297;24338;-54
2022/03/22 20:52:43;;;;;;;25.00;9.60;;;22.70;46.30;;;;;;214835;1299;24668;-57
2022/03/22 21:03:29;;;;;;;21.20;10.10;;;22.60;46.40;;;;;;215560;1297;25427;-61
2022/03/22 21:08:53;;;;;;;23.00;10.20;;;22.60;46.40;;;;;;215028;1299;22973;-56
2022/03/22 21:14:10;;;;;;;23.30;9.20;;;22.60;46.30;;;;;;215161;1299;22682;-60
2022/03/22 21:19:31;;;;;;;27.30;11.50;;;22.50;46.30;;;;;;214982;1299;22741;-60
2022/03/22 21:24:37;;;;;;;30.00;10.20;;;22.50;46.90;;;;;;214797;1299;25293;-56
2022/03/22 21:29:53;;;;;;;20.80;10.70;;;22.50;47.10;;;;;;214762;1299;22579;-57
2022/03/22 21:35:11;;;;;;;26.30;10.60;;;22.40;46.90;;;;;;214459;1300;25331;-56
2022/03/22 21:40:22;;;;;;;28.00;11.70;;;22.40;47.90;;;;;;214865;1299;26650;-59
2022/03/22 21:45:26;;;;;;;20.90;9.40;;;22.50;48.40;;;;;;214755;1299;22580;-58
2022/03/22 21:50:32;;;;;;;22.30;10.70;;;22.50;48.10;;;;;;214609;1299;24680;-58
2022/03/22 21:55:36;;;;;;;21.30;10.90;;;22.70;47.80;;;;;;214592;1299;22823;-57
2022/03/22 22:00:47;;;;;;;24.30;10.50;;;23.00;47.20;;;;;;214449;1299;22548;-65
2022/03/22 22:05:55;;;;;;;23.50;10.80;;;23.30;46.50;;;;;;214455;1299;24276;-59
2022/03/22 22:11:00;;;;;;;25.90;12.40;;;23.50;46.80;;;;;;214263;1299;24391;-57
2022/03/22 22:16:10;;;;;;;22.30;11.60;;;23.70;47.40;;;;;;214284;1299;22616;-57
2022/03/22 22:21:47;;;;;;;23.50;12.00;;;23.80;47.60;;;;;;214210;1299;22666;-58
2022/03/22 22:26:56;;;;;;;21.60;11.40;;;23.90;47.30;;;;;;214285;1299;25531;-57
2022/03/22 22:37:29;;;;;;;19.90;10.70;;;23.90;46.50;;;;;;214499;1299;22614;-62
2022/03/22 22:42:41;;;;;;;24.40;11.80;;;24.00;46.30;;;;;;214570;1299;25001;-59
2022/03/22 22:48:03;;;;;;;24.00;10.80;;;24.00;46.00;;;;;;214647;1299;25656;-56
2022/03/22 22:53:07;;;;;;;19.60;11.20;;;24.10;46.10;;;;;;214285;1299;26045;-57
2022/03/22 22:58:12;;;;;;;19.70;10.50;;;24.10;45.80;;;;;;214366;1299;23972;-57
2022/03/22 23:03:17;;;;;;;19.10;10.90;;;24.00;45.50;;;;;;214383;1299;22577;-53
2022/03/22 23:13:48;;;;;;;24.90;12.50;;;23.80;45.40;;;;;;214680;1299;22859;-58
2022/03/22 23:18:52;;;;;;;20.80;11.90;;;23.70;45.40;;;;;;214551;1299;25562;-57
2022/03/22 23:23:56;;;;;;;23.70;11.70;;;23.60;45.50;;;;;;214433;1299;22763;-54
2022/03/22 23:28:59;;;;;;;23.60;11.50;;;23.50;46.00;;;;;;214380;1299;25392;-57
2022/03/22 23:34:15;;;;;;;22.00;11.10;;;23.40;47.70;;;;;;214531;1299;22696;-59
2022/03/22 23:39:28;;;;;;;20.20;11.40;;;23.30;47.80;;;;;;214768;1299;24339;-55
2022/03/22 23:44:33;;;;;;;23.20;12.30;;;23.30;47.60;;;;;;214963;1299;22589;-55
2022/03/22 23:49:36;;;;;;;20.60;12.30;;;23.20;47.30;;;;;;215140;1300;25492;-54
2022/03/22 23:54:40;;;;;;;22.90;12.00;;;23.10;47.80;;;;;;214519;1299;23067;-58
2022/03/22 23:59:44;;;;;;;23.50;13.00;;;23.10;47.20;;;;;;214740;1299;22566;-56
